Time;durP1;ratioP1;P1;durP2;ratioP2;P2;SDS_P1;SDS_P2;PMS_P1;PMS_P2;Temp;Humidity;BMP_temperature;BMP_pressure;BME280_temperature;BME280_humidity;BME280_pressure;Samples;Min_cycle;Max_cycle;Signal;HPM_P1;HPM_P2
2022/05/21 00:26:26;;;;;;;83.90;52.17;;;13.70;99.90;;;;;;6011374;23;20375;-89
2022/05/21 00:28:55;;;;;;;82.23;49.47;;;13.80;99.90;;;;;;5990182;23;20381;-89
2022/05/21 00:32:08;;;;;;;82.47;46.37;;;13.70;99.90;;;;;;6032071;23;20399;-88
2022/05/21 00:35:31;;;;;;;;;;;;;;;;;;;;;
2022/05/21 00:38:34;;;;;;;77.20;38.40;;;13.80;99.90;;;;;;6024019;23;20784;-89
2022/05/21 00:44:15;;;;;;;77.70;37.10;;;13.80;99.90;;;;;;6128683;22;20444;-89
2022/05/21 00:47:01;;;;;;;78.27;38.63;;;13.80;99.90;;;;;;6127547;22;20396;-89
2022/05/21 00:50:02;;;;;;;;;;;;;;;;;;;;;
2022/05/21 00:53:26;;;;;;;;;;;;;;;;;;;;;
2022/05/21 00:55:53;;;;;;;72.83;18.07;;;13.90;99.90;;;;;;6114103;23;20450;-90
2022/05/21 01:01:54;;;;;;;69.93;12.40;;;14.00;99.90;;;;;;6128168;23;20763;-91
2022/05/21 01:16:06;;;;;;;73.77;20.47;;;13.90;99.90;;;;;;6127175;23;20419;-89
2022/05/21 01:22:49;;;;;;;81.30;37.13;;;13.80;99.90;;;;;;6095576;23;20445;-91
2022/05/21 01:25:43;;;;;;;79.10;36.90;;;13.80;99.90;;;;;;6134882;23;20524;-91
2022/05/21 01:31:18;;;;;;;76.57;30.10;;;13.70;99.90;;;;;;6014787;23;20392;-91
2022/05/21 01:41:54;;;;;;;81.00;41.40;;;13.50;99.90;;;;;;5926775;24;20457;-92
2022/05/21 01:44:46;;;;;;;81.60;41.83;;;13.40;99.90;;;;;;5963469;23;20425;-91
2022/05/21 01:47:47;;;;;;;;;;;;;;;;;;;;;
2022/05/21 01:50:13;;;;;;;77.93;39.50;;;13.40;99.90;;;;;;6125675;23;20412;-91
2022/05/21 01:53:23;;;;;;;80.97;42.20;;;13.40;99.90;;;;;;6127702;23;20386;-91
2022/05/21 01:55:53;;;;;;;79.70;45.80;;;13.40;99.90;;;;;;6103985;23;20234;-89
2022/05/21 01:58:22;;;;;;;89.77;44.10;;;13.40;99.90;;;;;;6128684;23;20844;-91
2022/05/21 02:01:53;;;;;;;80.70;41.53;;;13.30;99.90;;;;;;6101522;23;20470;-92
2022/05/21 02:05:18;;;;;;;75.03;33.40;;;13.40;99.90;;;;;;6014794;23;20381;-91
2022/05/21 02:08:11;;;;;;;76.47;37.97;;;13.40;99.90;;;;;;5956881;24;20376;-89
2022/05/21 02:11:24;;;;;;;77.20;39.47;;;13.30;99.90;;;;;;5957364;24;20905;-92
2022/05/21 02:17:29;;;;;;;79.63;38.07;;;13.20;99.90;;;;;;6037019;23;20377;-91
2022/05/21 02:20:08;;;;;;;77.73;35.40;;;13.30;99.90;;;;;;6037127;23;20719;-91
2022/05/21 02:23:36;;;;;;;74.20;33.57;;;13.30;99.90;;;;;;6013478;23;20452;-91
2022/05/21 02:26:17;;;;;;;;;;;;;;;;;;;;;
2022/05/21 02:29:39;;;;;;;68.47;17.80;;;13.30;99.90;;;;;;6072632;23;20908;-91
2022/05/21 02:32:10;;;;;;;70.37;22.07;;;13.40;99.90;;;;;;5957607;24;20501;-90
2022/05/21 02:34:57;;;;;;;;;;;;;;;;;;;;;
2022/05/21 02:40:21;;;;;;;;;;;;;;;;;;;;;
2022/05/21 02:42:48;;;;;;;67.57;12.27;;;13.40;99.90;;;;;;5980499;23;20482;-91
2022/05/21 02:45:48;;;;;;;66.47;8.47;;;13.40;99.90;;;;;;5980670;23;20414;-90
2022/05/21 02:48:22;;;;;;;65.77;9.30;;;13.40;99.90;;;;;;6095854;23;20357;-90
2022/05/21 02:50:51;;;;;;;64.57;8.43;;;13.30;99.90;;;;;;6096342;23;20526;-91
2022/05/21 02:53:19;;;;;;;67.63;11.23;;;13.30;99.90;;;;;;6095713;23;20509;-92
2022/05/21 02:56:08;;;;;;;73.93;11.77;;;13.30;99.90;;;;;;6095548;23;20366;-91
2022/05/21 02:58:37;;;;;;;70.37;11.47;;;13.30;99.90;;;;;;6096171;23;20347;-91
2022/05/21 03:01:06;;;;;;;72.97;29.00;;;13.20;99.90;;;;;;6093703;23;20414;-91
2022/05/21 03:03:32;;;;;;;74.73;32.30;;;13.10;99.90;;;;;;6092442;23;20387;-91
2022/05/21 03:06:02;;;;;;;81.60;53.47;;;13.10;99.90;;;;;;6094250;23;20411;-90
2022/05/21 03:11:44;;;;;;;74.17;33.80;;;13.00;99.90;;;;;;6155972;23;20388;-89
2022/05/21 03:14:10;;;;;;;70.00;25.73;;;13.10;99.90;;;;;;6107645;23;20871;-89
2022/05/21 03:16:38;;;;;;;74.90;31.23;;;13.10;99.90;;;;;;6118004;23;20150;-90
2022/05/21 03:21:31;;;;;;;72.97;33.30;;;13.20;99.90;;;;;;6285989;22;20417;-88
2022/05/21 03:23:58;;;;;;;77.87;41.53;;;13.20;99.90;;;;;;6260047;22;20847;-89
2022/05/21 03:26:24;;;;;;;75.87;38.47;;;13.20;99.90;;;;;;6257541;22;20179;-87
2022/05/21 03:28:50;;;;;;;73.90;36.20;;;13.30;99.90;;;;;;6257588;22;20369;-88
2022/05/21 03:31:16;;;;;;;78.50;43.50;;;13.30;99.90;;;;;;6256454;22;20422;-88
2022/05/21 03:33:42;;;;;;;76.07;43.60;;;13.40;99.90;;;;;;6284441;22;20373;-88
2022/05/21 03:36:08;;;;;;;73.67;36.20;;;13.40;99.90;;;;;;6284324;22;20166;-88
2022/05/21 03:38:34;;;;;;;77.97;42.00;;;13.50;99.90;;;;;;6257410;22;20175;-88
2022/05/21 03:41:03;;;;;;;76.87;39.47;;;13.50;99.90;;;;;;6283946;22;20385;-88
2022/05/21 03:43:28;;;;;;;72.53;29.33;;;13.60;99.90;;;;;;6283597;22;20361;-87
2022/05/21 03:45:55;;;;;;;70.70;27.90;;;13.60;99.90;;;;;;6282282;22;20402;-88
2022/05/21 03:48:21;;;;;;;77.03;28.93;;;13.70;99.90;;;;;;6256845;22;20484;-87
2022/05/21 03:50:47;;;;;;;69.17;20.90;;;13.60;99.90;;;;;;6255806;22;20366;-88
2022/05/21 03:53:14;;;;;;;71.17;20.37;;;13.60;99.90;;;;;;6283285;22;20376;-88
2022/05/21 03:55:40;;;;;;;71.40;24.20;;;13.60;99.90;;;;;;6256822;22;20150;-89
2022/05/21 03:58:06;;;;;;;72.50;24.17;;;13.50;99.90;;;;;;6257265;22;20447;-87
2022/05/21 04:00:32;;;;;;;68.53;13.80;;;13.50;99.90;;;;;;6282996;22;20143;-88
2022/05/21 04:02:59;;;;;;;66.87;11.20;;;13.60;99.90;;;;;;6257489;22;20151;-88
2022/05/21 04:05:25;;;;;;;77.00;11.50;;;13.60;99.90;;;;;;6284152;22;20405;-88
2022/05/21 04:07:51;;;;;;;69.80;10.67;;;13.70;99.90;;;;;;6285304;22;20376;-88
2022/05/21 04:10:18;;;;;;;68.57;11.97;;;13.60;99.90;;;;;;6284612;22;20146;-88
2022/05/21 04:12:43;;;;;;;67.60;12.80;;;13.60;99.90;;;;;;6283757;22;20732;-88
2022/05/21 04:15:11;;;;;;;68.80;7.53;;;13.60;99.90;;;;;;6282442;22;20437;-88
2022/05/21 04:17:37;;;;;;;67.73;7.97;;;13.70;99.90;;;;;;6257212;22;20148;-88
2022/05/21 04:20:06;;;;;;;67.10;10.37;;;13.70;99.90;;;;;;6284019;22;20708;-89
2022/05/21 04:22:31;;;;;;;66.20;9.27;;;13.60;99.90;;;;;;6286034;22;20386;-89
2022/05/21 04:24:57;;;;;;;72.97;11.83;;;13.60;99.90;;;;;;6257636;22;20416;-88
2022/05/21 04:27:23;;;;;;;66.87;12.20;;;13.60;99.90;;;;;;6257227;22;20574;-87
2022/05/21 04:29:49;;;;;;;66.70;10.17;;;13.60;99.90;;;;;;6283911;22;20142;-88
2022/05/21 04:32:14;;;;;;;65.90;9.40;;;13.60;99.90;;;;;;6257569;22;20163;-88
2022/05/21 04:34:40;;;;;;;66.47;10.97;;;13.60;99.90;;;;;;6284249;22;20292;-87
2022/05/21 04:37:05;;;;;;;64.10;6.10;;;13.60;99.90;;;;;;6283870;22;20197;-87
2022/05/21 04:39:31;;;;;;;67.17;7.97;;;13.60;99.90;;;;;;6258127;22;20261;-87
2022/05/21 04:42:00;;;;;;;63.50;5.00;;;13.60;99.90;;;;;;6289836;22;20163;-88
2022/05/21 04:44:31;;;;;;;70.67;5.30;;;13.70;99.90;;;;;;6255705;22;20275;-87
2022/05/21 04:46:58;;;;;;;64.37;5.60;;;13.60;99.90;;;;;;6281898;22;20423;-88
2022/05/21 04:49:24;;;;;;;65.20;4.57;;;13.70;99.90;;;;;;6254966;22;20382;-87
2022/05/21 04:51:50;;;;;;;63.60;5.00;;;13.70;99.90;;;;;;6280972;22;20435;-88
2022/05/21 04:54:16;;;;;;;68.60;10.07;;;13.60;99.90;;;;;;6281270;22;20910;-88
2022/05/21 04:56:42;;;;;;;66.40;11.80;;;13.50;99.90;;;;;;6285753;22;20373;-88
2022/05/21 04:59:11;;;;;;;68.10;12.97;;;13.60;99.90;;;;;;6281385;22;20370;-87
2022/05/21 05:01:40;;;;;;;67.10;7.43;;;13.60;99.90;;;;;;6282381;22;20616;-87
2022/05/21 05:04:06;;;;;;;66.50;5.90;;;13.70;99.90;;;;;;6283044;22;20381;-87
2022/05/21 05:06:32;;;;;;;64.93;7.23;;;13.80;99.90;;;;;;6282821;22;20366;-87
2022/05/21 05:08:58;;;;;;;64.07;5.60;;;13.90;99.90;;;;;;6256349;22;20420;-89
2022/05/21 05:11:24;;;;;;;65.10;6.47;;;14.00;99.90;;;;;;6285084;22;20389;-88
2022/05/21 05:13:50;;;;;;;64.87;7.37;;;13.90;99.90;;;;;;6283114;22;20350;-89
2022/05/21 05:16:18;;;;;;;65.63;7.60;;;14.00;99.90;;;;;;6284264;22;20513;-88
2022/05/21 05:18:51;;;;;;;64.60;5.87;;;14.10;99.90;;;;;;6283287;22;20139;-88
2022/05/21 05:21:17;;;;;;;68.60;7.37;;;14.20;99.90;;;;;;6284288;22;20405;-88
2022/05/21 05:23:43;;;;;;;63.67;7.10;;;14.10;99.90;;;;;;6256082;22;20747;-89
2022/05/21 05:26:08;;;;;;;66.13;5.00;;;14.10;99.90;;;;;;6283801;22;20581;-87
2022/05/21 05:28:34;;;;;;;65.17;4.50;;;14.20;99.90;;;;;;6283075;22;20145;-87
2022/05/21 05:30:59;;;;;;;65.10;5.20;;;14.30;99.90;;;;;;6282068;22;20208;-88
2022/05/21 05:33:26;;;;;;;66.33;4.90;;;14.30;99.90;;;;;;6284711;22;20477;-88
2022/05/21 05:35:52;;;;;;;65.80;4.63;;;14.30;99.90;;;;;;6284157;22;20193;-90
2022/05/21 05:38:18;;;;;;;70.40;6.40;;;14.40;99.90;;;;;;6256230;22;20758;-89
2022/05/21 05:40:47;;;;;;;69.03;6.27;;;14.40;99.90;;;;;;6256051;22;20436;-88
2022/05/21 05:43:15;;;;;;;66.20;5.00;;;14.40;99.90;;;;;;6284454;22;20370;-88
2022/05/21 05:45:43;;;;;;;66.70;5.20;;;14.40;99.90;;;;;;6258024;22;20853;-86
2022/05/21 05:48:10;;;;;;;65.10;6.00;;;14.50;99.90;;;;;;6256873;22;20374;-87
2022/05/21 05:50:36;;;;;;;72.40;8.23;;;14.60;99.90;;;;;;6256772;22;20488;-88
2022/05/21 05:53:03;;;;;;;65.40;6.07;;;14.60;99.90;;;;;;6283458;22;20452;-88
2022/05/21 05:55:30;;;;;;;70.10;6.00;;;14.60;99.90;;;;;;6283273;22;20393;-87
2022/05/21 05:57:56;;;;;;;66.20;5.50;;;14.60;99.90;;;;;;6256682;22;20374;-87
2022/05/21 06:00:23;;;;;;;64.27;6.63;;;14.70;99.90;;;;;;6284416;22;20401;-86
2022/05/21 06:02:58;;;;;;;68.43;7.07;;;14.80;99.90;;;;;;6256360;22;20397;-88
2022/05/21 06:05:24;;;;;;;70.07;6.07;;;14.80;99.90;;;;;;6281275;22;20728;-88
2022/05/21 06:07:55;;;;;;;65.40;7.40;;;14.90;99.90;;;;;;6255684;22;20883;-87
2022/05/21 06:10:35;;;;;;;67.53;7.57;;;15.00;99.90;;;;;;6257305;22;20430;-88
2022/05/21 06:13:06;;;;;;;65.67;6.97;;;15.10;99.90;;;;;;6258890;22;20359;-87
2022/05/21 06:15:33;;;;;;;68.43;6.50;;;15.10;99.90;;;;;;6285220;22;20347;-86
2022/05/21 06:17:58;;;;;;;68.80;7.57;;;15.20;99.90;;;;;;6284718;22;20370;-87
2022/05/21 06:20:27;;;;;;;71.70;5.77;;;15.30;99.90;;;;;;6258495;22;20409;-87
2022/05/21 06:22:53;;;;;;;70.17;6.13;;;15.30;99.90;;;;;;6257729;22;20169;-87
2022/05/21 06:25:22;;;;;;;66.97;6.20;;;15.30;99.90;;;;;;6284773;22;20407;-87
2022/05/21 06:27:50;;;;;;;67.63;5.07;;;15.30;99.90;;;;;;6284235;22;20428;-87
2022/05/21 06:30:19;;;;;;;72.87;5.00;;;15.20;99.90;;;;;;6284550;22;20390;-88
2022/05/21 06:32:44;;;;;;;70.37;4.90;;;15.10;99.90;;;;;;6284079;22;20410;-86
2022/05/21 06:35:12;;;;;;;65.57;4.17;;;15.20;99.90;;;;;;6284755;22;20364;-87
2022/05/21 06:37:38;;;;;;;66.13;4.80;;;15.10;99.90;;;;;;6284758;22;20148;-87
2022/05/21 06:40:06;;;;;;;68.87;4.67;;;15.20;99.90;;;;;;6284354;22;20378;-87
2022/05/21 06:42:32;;;;;;;65.30;6.27;;;15.10;99.90;;;;;;6283947;22;20396;-86
2022/05/21 06:44:57;;;;;;;69.80;5.03;;;15.10;99.90;;;;;;6284452;22;20440;-87
2022/05/21 06:47:23;;;;;;;67.70;5.20;;;15.20;99.90;;;;;;6256722;22;20141;-86
2022/05/21 06:49:54;;;;;;;68.40;5.90;;;15.10;99.90;;;;;;6283748;22;20140;-87
2022/05/21 06:52:20;;;;;;;68.50;5.33;;;15.20;99.90;;;;;;6256051;22;20502;-86
2022/05/21 06:54:45;;;;;;;67.37;6.53;;;15.20;99.90;;;;;;6283277;22;20446;-87
2022/05/21 06:57:13;;;;;;;70.40;4.90;;;15.30;99.90;;;;;;6254864;22;20529;-87
2022/05/21 06:59:39;;;;;;;71.27;5.03;;;15.30;99.90;;;;;;6256123;22;20148;-87
2022/05/21 07:02:05;;;;;;;68.40;5.17;;;15.30;99.90;;;;;;6282522;22;20391;-87
2022/05/21 07:10:06;;;;;;;69.17;5.23;;;15.50;99.90;;;;;;6283947;22;20454;-88
2022/05/21 07:12:33;;;;;;;65.47;4.80;;;15.40;99.90;;;;;;6255954;22;20396;-87
2022/05/21 07:14:59;;;;;;;74.50;4.50;;;15.50;99.90;;;;;;6255263;22;20438;-87
2022/05/21 07:17:25;;;;;;;69.67;5.00;;;15.50;99.90;;;;;;6283003;22;20395;-87
2022/05/21 07:19:54;;;;;;;71.83;5.27;;;15.50;99.90;;;;;;6282570;22;20918;-86
2022/05/21 07:22:20;;;;;;;67.13;4.80;;;15.60;99.90;;;;;;6284642;22;20166;-86
2022/05/21 07:24:46;;;;;;;69.53;4.87;;;15.80;99.90;;;;;;6256705;22;20446;-86
2022/05/21 07:27:12;;;;;;;66.07;4.30;;;15.90;99.90;;;;;;6281617;22;20368;-87
2022/05/21 07:29:39;;;;;;;67.67;4.80;;;16.10;99.90;;;;;;6256633;22;20145;-86
2022/05/21 07:32:06;;;;;;;71.63;4.70;;;16.10;98.90;;;;;;6254955;22;20391;-87
2022/05/21 07:34:32;;;;;;;68.27;4.67;;;16.20;99.90;;;;;;6256177;22;20465;-86
2022/05/21 07:37:03;;;;;;;70.70;5.10;;;16.20;96.90;;;;;;6284352;22;20370;-90
2022/05/21 07:39:34;;;;;;;66.60;5.50;;;16.30;97.70;;;;;;6259046;22;20156;-87
2022/05/21 07:42:05;;;;;;;67.53;5.93;;;16.30;94.90;;;;;;6286715;22;20383;-88
2022/05/21 07:44:31;;;;;;;69.80;5.40;;;16.40;92.70;;;;;;6258952;22;20488;-87
2022/05/21 07:46:56;;;;;;;66.87;6.70;;;16.50;95.90;;;;;;6284433;22;20368;-88
2022/05/21 07:49:23;;;;;;;69.93;6.30;;;16.50;96.30;;;;;;6283770;22;20164;-87
2022/05/21 07:51:49;;;;;;;65.50;4.67;;;16.50;94.60;;;;;;6257079;22;20201;-88
2022/05/21 07:54:15;;;;;;;67.17;6.30;;;16.60;91.70;;;;;;6284004;22;20365;-88
2022/05/21 07:56:40;;;;;;;69.70;7.93;;;16.60;98.10;;;;;;6256821;22;20377;-88
2022/05/21 07:59:06;;;;;;;66.47;5.50;;;16.80;95.60;;;;;;6284463;22;20189;-87
2022/05/21 08:01:32;;;;;;;67.73;4.43;;;16.70;90.60;;;;;;6283732;22;20226;-88
2022/05/21 08:04:00;;;;;;;70.80;4.80;;;16.70;90.00;;;;;;6256290;22;20145;-87
2022/05/21 08:06:26;;;;;;;71.70;5.10;;;16.60;84.90;;;;;;6282786;22;20174;-87
2022/05/21 08:08:54;;;;;;;67.43;5.33;;;16.60;86.30;;;;;;6257494;22;20754;-87
2022/05/21 08:11:20;;;;;;;70.30;6.33;;;16.60;81.80;;;;;;6255551;22;20394;-87
2022/05/21 08:13:46;;;;;;;69.80;7.03;;;16.50;93.50;;;;;;6282469;22;20879;-87
2022/05/21 08:16:14;;;;;;;66.53;5.07;;;16.70;96.20;;;;;;6256901;22;20383;-87
2022/05/21 08:18:40;;;;;;;69.67;4.87;;;16.80;76.60;;;;;;6256098;22;20381;-88
2022/05/21 08:21:07;;;;;;;69.83;5.23;;;16.90;74.30;;;;;;6254958;22;20424;-87
2022/05/21 08:29:02;;;;;;;66.87;4.70;;;17.20;60.80;;;;;;6284959;22;20356;-88
2022/05/21 08:31:28;;;;;;;65.80;4.10;;;17.30;67.80;;;;;;6281565;22;20382;-87
2022/05/21 08:33:54;;;;;;;69.20;4.63;;;17.50;91.40;;;;;;6282833;22;20371;-87
2022/05/21 08:36:20;;;;;;;70.30;5.20;;;17.60;75.40;;;;;;6256533;22;20378;-87
2022/05/21 08:38:46;;;;;;;68.53;3.80;;;17.60;64.20;;;;;;6283587;22;20427;-87
2022/05/21 08:41:23;;;;;;;71.10;4.87;;;17.80;67.10;;;;;;6282510;22;20337;-88
2022/05/21 08:44:07;;;;;;;68.23;5.13;;;17.90;64.50;;;;;;6282852;22;20346;-87
2022/05/21 08:46:36;;;;;;;69.57;6.10;;;18.00;66.30;;;;;;6283479;22;20394;-87
2022/05/21 08:49:15;;;;;;;69.73;5.20;;;18.10;56.40;;;;;;6255658;22;20378;-88
2022/05/21 08:51:45;;;;;;;66.57;4.60;;;18.10;47.80;;;;;;6255813;22;20386;-87
2022/05/21 08:54:12;;;;;;;67.63;4.60;;;18.10;47.90;;;;;;6256799;22;20358;-87
2022/05/21 08:56:38;;;;;;;67.40;4.43;;;17.90;47.90;;;;;;6285017;22;20362;-87
2022/05/21 08:59:07;;;;;;;67.10;5.03;;;17.90;45.10;;;;;;6282172;22;20696;-87
2022/05/21 09:01:36;;;;;;;68.70;4.40;;;17.80;55.00;;;;;;6285061;22;20425;-88
2022/05/21 09:04:04;;;;;;;67.87;4.30;;;17.80;48.90;;;;;;6256572;22;20866;-87
2022/05/21 09:06:38;;;;;;;68.13;4.07;;;17.70;51.10;;;;;;6282715;22;20997;-87
2022/05/21 09:09:21;;;;;;;66.47;4.30;;;17.90;52.60;;;;;;6282806;22;20346;-87
2022/05/21 09:12:06;;;;;;;70.50;6.00;;;18.00;54.00;;;;;;6283892;22;20373;-87
2022/05/21 09:14:43;;;;;;;66.80;4.50;;;18.00;64.10;;;;;;6284336;22;20378;-88
2022/05/21 09:17:12;;;;;;;67.10;4.20;;;18.20;51.30;;;;;;6282930;22;20334;-87
2022/05/21 09:19:58;;;;;;;68.50;4.70;;;18.20;46.00;;;;;;6223136;22;20470;-84
2022/05/21 09:22:25;;;;;;;67.00;3.93;;;18.20;42.00;;;;;;6127627;23;20395;-85
2022/05/21 09:24:56;;;;;;;69.60;4.63;;;18.20;31.30;;;;;;6127370;23;20402;-84
2022/05/21 09:27:35;;;;;;;67.87;4.97;;;18.10;30.40;;;;;;6126198;23;20351;-82
2022/05/21 09:30:25;;;;;;;68.07;4.27;;;18.10;29.00;;;;;;6126331;23;20376;-84
2022/05/21 09:32:57;;;;;;;68.10;4.30;;;18.10;32.20;;;;;;6100292;23;20747;-83
2022/05/21 09:35:25;;;;;;;67.10;4.33;;;18.10;32.50;;;;;;6102454;23;20876;-84
2022/05/21 09:37:52;;;;;;;70.40;3.93;;;18.00;34.30;;;;;;6127268;23;20363;-84
2022/05/21 09:40:25;;;;;;;67.07;4.17;;;17.90;33.90;;;;;;6129873;23;20428;-84
2022/05/21 09:45:37;;;;;;;74.50;5.10;;;17.90;42.20;;;;;;6130264;23;20404;-84
2022/05/21 09:48:06;;;;;;;69.30;4.53;;;18.10;42.10;;;;;;6127325;23;20440;-84
2022/05/21 09:50:43;;;;;;;66.87;3.37;;;18.20;30.00;;;;;;6127156;23;20381;-83
2022/05/21 09:53:27;;;;;;;66.57;3.77;;;18.30;27.40;;;;;;6127300;23;20353;-84
2022/05/21 09:56:04;;;;;;;66.90;3.20;;;18.60;25.00;;;;;;6128715;23;20391;-85
2022/05/21 09:58:34;;;;;;;67.60;3.40;;;18.90;20.00;;;;;;6126723;23;20350;-84
2022/05/21 10:01:00;;;;;;;66.63;3.43;;;18.80;1.00;;;;;;6126808;23;20891;-83
2022/05/21 10:03:47;;;;;;;66.80;3.57;;;18.90;7.90;;;;;;6101554;23;20724;-83
2022/05/21 10:06:29;;;;;;;69.10;3.47;;;18.80;5.50;;;;;;6101380;23;20466;-83
2022/05/21 10:12:20;;;;;;;70.13;3.40;;;18.80;13.40;;;;;;6126105;23;20762;-83
2022/05/21 10:15:05;;;;;;;69.37;3.23;;;19.10;1.40;;;;;;6126087;23;20359;-84
2022/05/21 10:17:45;;;;;;;67.17;3.30;;;19.10;1.00;;;;;;6125327;23;20354;-83
2022/05/21 10:20:35;;;;;;;66.27;3.43;;;19.20;1.00;;;;;;6125315;23;20481;-83
2022/05/21 10:23:02;;;;;;;69.10;3.33;;;19.30;2.00;;;;;;6125894;23;20355;-83
2022/05/21 10:25:40;;;;;;;67.67;3.23;;;19.40;2.00;;;;;;6125813;23;20413;-82
2022/05/21 10:28:24;;;;;;;66.60;3.50;;;19.40;3.90;;;;;;6125226;23;20360;-83
2022/05/21 10:31:13;;;;;;;71.83;4.30;;;19.60;1.00;;;;;;6125781;23;20446;-83
2022/05/21 10:33:51;;;;;;;68.90;3.80;;;19.80;1.00;;;;;;6100788;23;20708;-83
2022/05/21 10:36:41;;;;;;;66.47;3.30;;;20.00;1.00;;;;;;6103710;23;20383;-84
2022/05/21 10:39:41;;;;;;;73.73;3.53;;;20.10;1.00;;;;;;6133813;23;20360;-85
2022/05/21 10:42:49;;;;;;;68.47;3.30;;;20.40;1.00;;;;;;6130281;23;20460;-85
2022/05/21 10:45:22;;;;;;;67.20;3.67;;;20.70;1.00;;;;;;6076557;23;20410;-85
2022/05/21 10:48:13;;;;;;;67.43;4.37;;;20.90;1.00;;;;;;6130935;23;20358;-85
2022/05/21 10:51:09;;;;;;;68.73;5.00;;;21.20;1.00;;;;;;6105895;23;20882;-85
2022/05/21 10:54:02;;;;;;;69.00;4.07;;;20.90;1.00;;;;;;6132867;23;20345;-85
2022/05/21 10:56:44;;;;;;;70.57;5.63;;;20.80;1.00;;;;;;6108228;23;20621;-86
2022/05/21 10:59:38;;;;;;;69.67;5.60;;;20.50;1.00;;;;;;6133453;23;20899;-85
2022/05/21 11:02:33;;;;;;;73.00;8.10;;;20.40;1.00;;;;;;6132618;23;20880;-85
2022/05/21 11:05:02;;;;;;;70.07;6.83;;;20.80;1.00;;;;;;6132944;23;20493;-85
2022/05/21 11:07:52;;;;;;;68.20;3.57;;;21.10;1.00;;;;;;6132803;23;20363;-86
2022/05/21 11:10:26;;;;;;;70.00;6.30;;;21.30;1.00;;;;;;6134683;23;20864;-85
2022/05/21 11:13:05;;;;;;;71.13;7.80;;;21.50;1.00;;;;;;6134508;23;20886;-85
2022/05/21 11:15:49;;;;;;;71.00;7.63;;;21.60;1.00;;;;;;6134467;23;20690;-85
2022/05/21 11:18:30;;;;;;;69.77;5.97;;;21.90;1.00;;;;;;6134620;23;20350;-84
2022/05/21 11:21:22;;;;;;;70.40;6.03;;;22.10;1.00;;;;;;6133712;23;20421;-84
2022/05/21 11:24:06;;;;;;;67.67;4.40;;;22.30;1.00;;;;;;6117398;22;20413;-85
2022/05/21 11:26:42;;;;;;;74.17;3.27;;;22.60;1.00;;;;;;6134656;23;20401;-85
2022/05/21 11:29:32;;;;;;;73.40;2.97;;;22.80;1.00;;;;;;6136147;22;20351;-85
2022/05/21 11:37:40;;;;;;;68.00;3.03;;;22.30;1.00;;;;;;6135349;23;20395;-85
2022/05/21 11:40:08;;;;;;;68.20;2.70;;;22.30;1.00;;;;;;6134745;23;20408;-85
2022/05/21 11:42:35;;;;;;;68.27;3.53;;;22.10;1.00;;;;;;6134010;22;20391;-85
2022/05/21 11:45:23;;;;;;;71.10;3.43;;;22.30;1.00;;;;;;6133702;23;20413;-85
2022/05/21 11:47:49;;;;;;;68.97;4.00;;;22.50;1.00;;;;;;6132710;23;20405;-85
2022/05/21 11:50:25;;;;;;;67.50;3.10;;;22.60;1.00;;;;;;6104304;23;20379;-85
2022/05/21 11:52:51;;;;;;;70.50;3.90;;;22.80;1.00;;;;;;6128322;23;20481;-84
2022/05/21 11:55:22;;;;;;;74.40;3.60;;;23.20;1.00;;;;;;6132866;23;20377;-84
2022/05/21 11:58:00;;;;;;;67.77;2.90;;;23.40;1.00;;;;;;6131821;23;20584;-84
2022/05/21 12:00:25;;;;;;;69.57;3.50;;;23.30;1.00;;;;;;6135464;23;20899;-84
2022/05/21 12:02:54;;;;;;;67.00;3.03;;;23.40;1.00;;;;;;6136483;23;20394;-84
2022/05/21 12:05:38;;;;;;;71.30;3.20;;;23.30;1.00;;;;;;6138344;23;20177;-84
2022/05/21 12:08:16;;;;;;;66.57;2.80;;;23.20;1.00;;;;;;6138237;23;20347;-85
2022/05/21 12:11:04;;;;;;;68.07;3.40;;;23.00;1.00;;;;;;6138994;23;20347;-84
2022/05/21 12:14:00;;;;;;;72.13;4.30;;;22.90;1.00;;;;;;6138645;23;20351;-86
2022/05/21 12:16:26;;;;;;;69.30;3.90;;;22.60;1.00;;;;;;6129679;23;20375;-83
2022/05/21 12:19:01;;;;;;;68.87;3.53;;;22.00;1.00;;;;;;6128378;23;20375;-84
2022/05/21 12:21:40;;;;;;;67.67;2.97;;;21.80;1.00;;;;;;6128111;23;20409;-84
2022/05/21 12:24:27;;;;;;;66.70;3.20;;;21.70;1.00;;;;;;6127602;23;20383;-83
2022/05/21 12:27:26;;;;;;;68.13;3.07;;;22.00;1.00;;;;;;6125785;23;20382;-82
2022/05/21 12:30:02;;;;;;;67.20;3.70;;;22.30;1.00;;;;;;6126077;23;20376;-83
2022/05/21 12:32:29;;;;;;;70.40;4.87;;;22.60;1.00;;;;;;6099475;23;20422;-84
2022/05/21 12:35:26;;;;;;;68.93;4.80;;;22.70;1.00;;;;;;6100280;23;20371;-83
2022/05/21 12:38:03;;;;;;;69.47;4.17;;;22.70;1.00;;;;;;6127649;23;20349;-83
2022/05/21 12:40:50;;;;;;;68.57;4.47;;;22.90;1.00;;;;;;6132313;23;20343;-82
2022/05/21 12:43:16;;;;;;;67.13;3.23;;;23.00;1.00;;;;;;6132389;23;20347;-84
2022/05/21 12:45:47;;;;;;;68.07;4.03;;;23.20;1.00;;;;;;6128687;23;20448;-85
2022/05/21 12:48:32;;;;;;;75.85;9.85;;;23.10;1.00;;;;;;6099476;23;20443;-83
2022/05/21 12:51:04;;;;;;;69.47;4.23;;;22.90;1.00;;;;;;6099058;23;20217;-83
2022/05/21 12:53:36;;;;;;;71.70;4.80;;;22.90;1.00;;;;;;6125678;23;20385;-83
2022/05/21 12:56:33;;;;;;;67.87;3.63;;;23.10;1.00;;;;;;6124878;23;20402;-84
2022/05/21 12:59:18;;;;;;;67.77;3.30;;;23.10;1.00;;;;;;6100742;23;20378;-83
2022/05/21 13:02:08;;;;;;;70.97;4.50;;;23.20;1.00;;;;;;6126445;23;20386;-84
2022/05/21 13:04:39;;;;;;;73.17;3.93;;;23.20;1.00;;;;;;6126582;23;20351;-83
2022/05/21 13:07:41;;;;;;;67.07;2.93;;;23.40;1.00;;;;;;6126897;23;20355;-83
2022/05/21 13:10:27;;;;;;;66.63;3.10;;;23.50;1.00;;;;;;6100418;23;20704;-84
2022/05/21 13:12:58;;;;;;;67.93;2.73;;;23.20;1.00;;;;;;6126720;23;20882;-83
2022/05/21 13:15:40;;;;;;;75.17;3.47;;;22.90;1.00;;;;;;6127171;23;20351;-84
2022/05/21 13:18:27;;;;;;;69.90;2.83;;;22.80;1.00;;;;;;6101518;23;20378;-84
2022/05/21 13:21:08;;;;;;;68.83;3.47;;;22.60;1.00;;;;;;6125698;23;20403;-84
2022/05/21 13:23:52;;;;;;;67.53;2.87;;;22.60;1.00;;;;;;6125056;23;20924;-84
2022/05/21 13:26:23;;;;;;;68.37;4.83;;;22.70;1.00;;;;;;6099373;23;20452;-84
2022/05/21 13:29:24;;;;;;;68.40;3.10;;;22.90;1.00;;;;;;6100348;23;20383;-84
2022/05/21 13:31:52;;;;;;;70.43;4.20;;;23.00;1.00;;;;;;6126632;23;20382;-84
2022/05/21 13:34:21;;;;;;;71.27;3.10;;;22.90;1.00;;;;;;6100623;23;20374;-83
2022/05/21 13:37:04;;;;;;;74.60;3.60;;;23.10;1.00;;;;;;6132558;23;20697;-84
2022/05/21 13:39:41;;;;;;;68.67;3.17;;;23.30;1.00;;;;;;6106105;23;20374;-84
2022/05/21 13:42:15;;;;;;;70.70;3.00;;;23.20;1.00;;;;;;6105679;23;20394;-84
2022/05/21 13:44:43;;;;;;;68.83;3.20;;;23.10;1.00;;;;;;6132285;23;20347;-84
2022/05/21 13:47:25;;;;;;;75.20;4.17;;;23.20;1.00;;;;;;6132204;23;20363;-85
2022/05/21 13:49:54;;;;;;;66.27;2.67;;;23.40;1.00;;;;;;6133009;22;20348;-85
2022/05/21 13:52:25;;;;;;;67.80;2.97;;;23.60;1.00;;;;;;6133753;23;20387;-85
2022/05/21 13:54:51;;;;;;;71.70;4.00;;;23.80;1.00;;;;;;6131242;23;20374;-85
2022/05/21 13:57:26;;;;;;;68.40;3.27;;;23.80;1.00;;;;;;6131885;23;20375;-85
2022/05/21 13:59:59;;;;;;;66.87;2.90;;;23.90;1.00;;;;;;6131620;23;20374;-86
2022/05/21 14:02:35;;;;;;;68.10;2.37;;;23.60;1.00;;;;;;6131759;23;20386;-85
2022/05/21 14:05:33;;;;;;;66.23;2.67;;;23.60;1.00;;;;;;6131979;23;20446;-85
2022/05/21 14:08:14;;;;;;;68.53;3.37;;;23.80;1.00;;;;;;6131823;23;20363;-84
2022/05/21 14:10:43;;;;;;;67.93;2.63;;;24.00;1.00;;;;;;6131539;23;20810;-84
2022/05/21 14:13:40;;;;;;;67.97;3.00;;;24.20;1.00;;;;;;6134960;23;20363;-85
2022/05/21 14:16:23;;;;;;;67.30;2.27;;;24.30;1.00;;;;;;6133196;23;20354;-83
2022/05/21 14:19:18;;;;;;;66.90;2.13;;;24.30;1.00;;;;;;6125598;23;20355;-82
2022/05/21 14:22:13;;;;;;;70.30;3.17;;;24.20;1.00;;;;;;6099935;22;20402;-82
2022/05/21 14:24:48;;;;;;;68.37;2.83;;;24.00;1.00;;;;;;6125994;23;20352;-82
2022/05/21 14:27:21;;;;;;;73.37;2.80;;;23.80;1.00;;;;;;6125052;23;20432;-83
2022/05/21 14:29:56;;;;;;;71.90;3.87;;;23.60;1.00;;;;;;6101382;23;20373;-83
2022/05/21 14:32:35;;;;;;;69.47;2.90;;;23.40;1.00;;;;;;6100678;23;20477;-83
2022/05/21 14:35:15;;;;;;;69.43;3.23;;;23.20;1.00;;;;;;6126519;23;20741;-84
2022/05/21 14:37:41;;;;;;;68.00;2.90;;;23.00;1.00;;;;;;6126535;23;20343;-83
2022/05/21 14:40:08;;;;;;;69.47;3.57;;;22.90;1.00;;;;;;6127028;23;20367;-83
2022/05/21 14:42:33;;;;;;;67.70;2.90;;;22.90;1.00;;;;;;6127100;23;20402;-84
2022/05/21 14:44:59;;;;;;;68.73;2.97;;;22.90;1.00;;;;;;6101809;23;20736;-84
2022/05/21 14:52:59;;;;;;;67.27;2.87;;;23.20;1.00;;;;;;6126114;23;20802;-82
2022/05/21 14:55:25;;;;;;;67.87;3.17;;;23.40;1.00;;;;;;6126365;23;20374;-83
2022/05/21 14:57:51;;;;;;;70.80;3.10;;;23.50;1.00;;;;;;6126262;23;20402;-83
2022/05/21 15:00:19;;;;;;;68.87;2.93;;;23.50;1.00;;;;;;6126680;23;20741;-83
2022/05/21 15:02:45;;;;;;;71.30;3.07;;;23.60;1.00;;;;;;6126007;23;20863;-83